Time;durP1;ratioP1;P1;durP2;ratioP2;P2;SDS_P1;SDS_P2;PMS_P1;PMS_P2;Temp;Humidity;BMP_temperature;BMP_pressure;BME280_temperature;BME280_humidity;BME280_pressure;Samples;Min_cycle;Max_cycle;Signal;HPM_P1;HPM_P2
2022/03/07 00:02:37;;;;;;;5.13;4.07;;;1.80;99.90;;;;;;4868993;29;20446;-81
2022/03/07 00:05:22;;;;;;;9.30;3.93;;;1.40;99.90;;;;;;4868160;29;20444;-82
2022/03/07 00:08:07;;;;;;;8.90;4.10;;;1.60;99.90;;;;;;4868519;29;20398;-81
2022/03/07 00:10:51;;;;;;;4.47;3.83;;;1.50;99.90;;;;;;4857944;29;20411;-81
2022/03/07 00:13:37;;;;;;;4.47;3.40;;;1.60;99.90;;;;;;4860113;29;20402;-81
2022/03/07 00:16:21;;;;;;;4.87;4.30;;;1.90;99.90;;;;;;4862665;29;20498;-81
2022/03/07 00:19:06;;;;;;;4.37;3.40;;;2.00;99.90;;;;;;4849082;29;20423;-81
2022/03/07 00:21:50;;;;;;;4.00;3.60;;;2.00;99.90;;;;;;4853672;29;20632;-81
2022/03/07 00:24:35;;;;;;;6.67;4.20;;;1.50;99.90;;;;;;4847247;29;20504;-81
2022/03/07 00:27:19;;;;;;;4.97;4.43;;;1.80;99.90;;;;;;4847251;29;20922;-81
2022/03/07 00:30:06;;;;;;;5.10;4.60;;;1.80;99.90;;;;;;4847308;29;20866;-81
2022/03/07 00:32:50;;;;;;;4.93;4.23;;;1.40;99.90;;;;;;4810605;29;20422;-82
2022/03/07 00:35:35;;;;;;;5.23;4.73;;;1.30;99.90;;;;;;4810792;29;20516;-82
2022/03/07 00:38:19;;;;;;;6.43;4.50;;;1.20;99.90;;;;;;4810523;29;20956;-82
2022/03/07 00:41:04;;;;;;;5.43;4.90;;;1.20;99.90;;;;;;4816589;29;20413;-82
2022/03/07 00:43:48;;;;;;;6.37;4.57;;;1.20;99.90;;;;;;4829059;29;20470;-82
2022/03/07 00:46:33;;;;;;;7.47;5.60;;;1.30;99.90;;;;;;4829399;29;20536;-82
2022/03/07 00:49:17;;;;;;;7.43;5.40;;;1.50;99.90;;;;;;4828783;29;20408;-82
2022/03/07 00:52:02;;;;;;;11.33;6.03;;;1.20;99.90;;;;;;4836647;29;20476;-79
2022/03/07 00:54:47;;;;;;;5.83;3.90;;;1.00;99.90;;;;;;4834220;29;20447;-79
2022/03/07 00:57:31;;;;;;;6.67;5.30;;;1.20;99.90;;;;;;4846974;29;20513;-78
2022/03/07 01:00:16;;;;;;;6.80;4.70;;;1.40;99.90;;;;;;4839522;29;20460;-81
2022/03/07 01:03:04;;;;;;;6.93;6.13;;;1.30;99.90;;;;;;4827523;29;20465;-81
2022/03/07 01:05:49;;;;;;;12.83;7.10;;;1.50;99.90;;;;;;4869679;29;20448;-78
2022/03/07 01:08:33;;;;;;;8.10;5.93;;;1.60;99.90;;;;;;4867608;29;20920;-79
2022/03/07 01:11:19;;;;;;;8.93;6.13;;;1.30;99.90;;;;;;4867165;29;20423;-80
2022/03/07 01:14:03;;;;;;;7.93;5.13;;;1.20;99.90;;;;;;4867440;29;20415;-80
2022/03/07 01:16:48;;;;;;;12.67;5.57;;;1.40;99.90;;;;;;4867049;29;20806;-80
2022/03/07 01:19:33;;;;;;;7.17;6.30;;;1.50;99.90;;;;;;4866461;29;20414;-81
2022/03/07 01:22:17;;;;;;;9.17;5.60;;;1.20;99.90;;;;;;4877871;29;20398;-80
2022/03/07 01:25:04;;;;;;;6.50;4.20;;;1.30;99.90;;;;;;4865971;29;20508;-80
2022/03/07 01:27:48;;;;;;;6.97;4.33;;;1.40;99.90;;;;;;4866200;29;20753;-81
2022/03/07 01:30:33;;;;;;;5.53;4.80;;;1.50;99.90;;;;;;4865523;29;20431;-82
2022/03/07 01:33:18;;;;;;;7.53;3.90;;;1.40;99.90;;;;;;4866071;29;20506;-81
2022/03/07 01:36:04;;;;;;;5.90;4.40;;;1.10;99.90;;;;;;4866018;29;20464;-80
2022/03/07 01:38:49;;;;;;;6.97;5.57;;;0.80;99.90;;;;;;4865907;29;20495;-81
2022/03/07 01:41:34;;;;;;;7.23;5.60;;;0.70;99.90;;;;;;4864925;29;20400;-81
2022/03/07 01:44:20;;;;;;;5.17;4.57;;;0.70;99.90;;;;;;4865502;29;20476;-81
2022/03/07 01:47:05;;;;;;;5.53;4.93;;;0.70;99.90;;;;;;4866432;29;20414;-81
2022/03/07 01:49:52;;;;;;;4.57;3.47;;;1.00;99.90;;;;;;4864913;29;20471;-82
2022/03/07 01:52:39;;;;;;;6.70;4.07;;;0.80;99.90;;;;;;4866269;29;20377;-82
2022/03/07 01:55:24;;;;;;;11.87;4.33;;;0.80;99.90;;;;;;4864793;29;20479;-81
2022/03/07 01:58:09;;;;;;;4.70;4.30;;;0.60;99.90;;;;;;4865993;29;20451;-81
2022/03/07 02:00:53;;;;;;;4.80;3.63;;;0.70;99.90;;;;;;4866347;29;20402;-82
2022/03/07 02:03:38;;;;;;;7.70;5.00;;;0.90;99.90;;;;;;4876621;29;20450;-81
2022/03/07 02:06:24;;;;;;;4.10;3.80;;;1.00;99.90;;;;;;4868603;29;20490;-82
2022/03/07 02:09:09;;;;;;;6.73;5.97;;;1.20;99.90;;;;;;4865998;29;20901;-81
2022/03/07 02:11:53;;;;;;;4.07;2.93;;;1.40;99.90;;;;;;4878141;29;20399;-81
2022/03/07 02:14:37;;;;;;;7.53;4.67;;;1.50;99.90;;;;;;4865595;29;20399;-82
2022/03/07 02:17:22;;;;;;;4.30;3.70;;;1.50;99.90;;;;;;4866170;29;20451;-80
2022/03/07 02:20:08;;;;;;;3.90;3.60;;;1.30;99.90;;;;;;4865613;29;20401;-81
2022/03/07 02:22:53;;;;;;;4.97;4.47;;;1.20;99.90;;;;;;4864848;29;20463;-81
2022/03/07 02:25:38;;;;;;;4.70;4.23;;;0.90;99.90;;;;;;4865313;29;20414;-81
2022/03/07 02:28:22;;;;;;;5.93;4.13;;;1.00;99.90;;;;;;4866032;29;20392;-81
2022/03/07 02:31:07;;;;;;;7.67;4.70;;;1.30;99.90;;;;;;4865816;29;20418;-81
2022/03/07 02:33:52;;;;;;;5.63;4.47;;;1.30;99.90;;;;;;4865729;29;20457;-81
2022/03/07 02:36:36;;;;;;;4.10;3.80;;;1.20;99.90;;;;;;4866036;29;20394;-81
2022/03/07 02:39:21;;;;;;;4.77;4.30;;;1.30;99.90;;;;;;4865911;29;20402;-81
2022/03/07 02:42:07;;;;;;;5.90;4.77;;;1.40;99.90;;;;;;4865524;29;20390;-81
2022/03/07 02:44:53;;;;;;;4.93;4.43;;;1.40;99.90;;;;;;4877897;29;20741;-81
2022/03/07 02:47:37;;;;;;;7.70;4.30;;;1.50;99.90;;;;;;4878250;29;20479;-82
2022/03/07 02:50:21;;;;;;;6.83;5.37;;;1.50;99.90;;;;;;4866037;29;20514;-82
2022/03/07 02:53:06;;;;;;;7.00;5.90;;;1.50;99.90;;;;;;4867511;29;20395;-80
2022/03/07 02:55:51;;;;;;;5.30;4.50;;;1.40;99.90;;;;;;4867377;29;20491;-82
2022/03/07 02:58:37;;;;;;;4.17;3.87;;;1.50;99.90;;;;;;4867328;29;20482;-81
2022/03/07 03:01:22;;;;;;;4.97;4.47;;;1.40;99.90;;;;;;4867625;29;20768;-82
2022/03/07 03:04:06;;;;;;;5.83;4.50;;;1.10;99.90;;;;;;4882820;29;20979;-82
2022/03/07 03:06:50;;;;;;;5.13;4.40;;;0.90;99.90;;;;;;4871121;29;20390;-81
2022/03/07 03:09:35;;;;;;;8.77;4.33;;;0.70;99.90;;;;;;4874483;29;20402;-81
2022/03/07 03:12:24;;;;;;;3.87;3.57;;;0.90;99.90;;;;;;4884396;29;20373;-82
2022/03/07 03:15:08;;;;;;;4.60;3.70;;;0.80;99.90;;;;;;4884792;29;20399;-82
2022/03/07 03:17:53;;;;;;;6.87;3.90;;;0.70;99.90;;;;;;4884937;29;20378;-81
2022/03/07 03:20:38;;;;;;;4.53;4.13;;;0.70;99.90;;;;;;4885103;29;20840;-81
2022/03/07 03:23:22;;;;;;;6.70;4.47;;;0.60;99.90;;;;;;4880259;29;20450;-81
2022/03/07 03:26:07;;;;;;;4.10;3.70;;;0.60;99.90;;;;;;4868888;29;20411;-81
2022/03/07 03:28:52;;;;;;;4.43;4.03;;;0.70;99.90;;;;;;4868949;29;20396;-81
2022/03/07 03:31:36;;;;;;;6.93;5.13;;;0.70;99.90;;;;;;4881297;29;20743;-81
2022/03/07 03:34:21;;;;;;;5.47;4.17;;;0.80;99.90;;;;;;4868925;29;20395;-81
2022/03/07 03:37:05;;;;;;;6.03;4.10;;;0.70;99.90;;;;;;4868823;29;20476;-81
2022/03/07 03:39:50;;;;;;;4.40;4.03;;;0.60;99.90;;;;;;4867292;29;20411;-81
2022/03/07 03:42:36;;;;;;;10.63;4.33;;;0.40;99.90;;;;;;4868864;29;20603;-81
2022/03/07 03:45:20;;;;;;;5.67;5.20;;;0.40;99.90;;;;;;4869622;29;20456;-81
2022/03/07 03:48:05;;;;;;;4.93;3.67;;;0.30;99.90;;;;;;4868272;29;20413;-81
2022/03/07 03:50:49;;;;;;;5.57;3.80;;;0.40;99.90;;;;;;4868512;29;20385;-81
2022/03/07 03:53:34;;;;;;;7.10;5.30;;;0.60;99.90;;;;;;4868299;29;20411;-81
2022/03/07 03:56:19;;;;;;;5.90;5.10;;;0.40;99.90;;;;;;4868541;29;20984;-81
2022/03/07 03:59:03;;;;;;;6.07;4.63;;;0.40;99.90;;;;;;4867714;29;20530;-80
2022/03/07 04:01:48;;;;;;;4.20;3.83;;;0.30;99.90;;;;;;4865752;29;20467;-80
2022/03/07 04:04:32;;;;;;;5.97;4.90;;;0.60;99.90;;;;;;4853260;29;20570;-81
2022/03/07 04:07:17;;;;;;;6.97;5.40;;;0.50;99.90;;;;;;4866136;29;20416;-81
2022/03/07 04:10:01;;;;;;;5.37;4.87;;;0.60;99.90;;;;;;4866333;29;20876;-81
2022/03/07 04:12:45;;;;;;;7.07;4.67;;;0.80;99.90;;;;;;4864589;29;20383;-80
2022/03/07 04:15:30;;;;;;;6.60;4.80;;;1.00;99.90;;;;;;4865116;29;21000;-79
2022/03/07 04:18:15;;;;;;;6.37;5.17;;;0.90;99.90;;;;;;4865871;29;20417;-79
2022/03/07 04:21:00;;;;;;;9.50;5.13;;;0.90;99.90;;;;;;4852694;29;20418;-81
2022/03/07 04:23:45;;;;;;;8.23;5.20;;;1.00;99.90;;;;;;4838997;29;20473;-81
2022/03/07 04:26:30;;;;;;;11.57;5.90;;;1.00;99.90;;;;;;4852229;29;21022;-81
2022/03/07 04:29:15;;;;;;;4.10;3.77;;;1.20;99.90;;;;;;4852497;29;20416;-81
2022/03/07 04:32:00;;;;;;;5.97;4.30;;;0.90;99.90;;;;;;4866130;29;20468;-80
2022/03/07 04:34:45;;;;;;;8.60;6.40;;;1.10;99.90;;;;;;4867501;29;20381;-80
2022/03/07 04:37:31;;;;;;;5.97;5.37;;;1.30;99.90;;;;;;4865872;29;20396;-81
2022/03/07 04:40:17;;;;;;;5.23;4.73;;;1.10;99.90;;;;;;4867425;29;20428;-80
2022/03/07 04:43:01;;;;;;;8.33;5.60;;;1.20;99.90;;;;;;4866598;29;20454;-81
2022/03/07 04:45:46;;;;;;;5.20;4.73;;;0.90;99.90;;;;;;4878935;29;20529;-80
2022/03/07 04:48:31;;;;;;;11.30;5.30;;;0.90;99.90;;;;;;4878482;29;20402;-81
2022/03/07 04:51:16;;;;;;;5.57;4.97;;;0.70;99.90;;;;;;4867464;29;20403;-81
2022/03/07 04:54:04;;;;;;;5.10;4.60;;;0.80;99.90;;;;;;4865517;29;20773;-81
2022/03/07 04:56:50;;;;;;;6.40;3.17;;;1.10;99.90;;;;;;4867441;29;20440;-79
2022/03/07 04:59:34;;;;;;;8.90;5.57;;;1.00;99.90;;;;;;4880793;29;20448;-81
2022/03/07 05:02:19;;;;;;;6.73;5.57;;;0.90;99.90;;;;;;4873456;29;20900;-81
2022/03/07 05:05:03;;;;;;;7.60;5.00;;;1.10;99.90;;;;;;4880964;29;20433;-81
2022/03/07 05:07:49;;;;;;;6.97;5.07;;;1.20;99.90;;;;;;4869507;29;20524;-82
2022/03/07 05:10:34;;;;;;;5.80;4.77;;;1.20;99.90;;;;;;4871806;29;20391;-81
2022/03/07 05:13:19;;;;;;;5.53;4.93;;;1.10;99.90;;;;;;4867306;29;20475;-81
2022/03/07 05:16:05;;;;;;;4.77;4.37;;;1.00;99.90;;;;;;4867968;29;20914;-81
2022/03/07 05:18:50;;;;;;;7.87;5.97;;;0.70;99.90;;;;;;4868224;29;20391;-81
2022/03/07 05:21:36;;;;;;;5.20;4.70;;;0.60;99.90;;;;;;4868403;29;20370;-81
2022/03/07 05:24:20;;;;;;;5.53;4.03;;;0.60;99.90;;;;;;4883176;29;20503;-81
2022/03/07 05:27:05;;;;;;;5.10;4.70;;;0.50;99.90;;;;;;4885224;29;20459;-80
2022/03/07 05:29:51;;;;;;;4.23;3.83;;;0.50;99.90;;;;;;4884785;29;20407;-80
2022/03/07 05:32:35;;;;;;;8.03;4.60;;;0.50;99.90;;;;;;4885078;29;20437;-80
2022/03/07 05:35:22;;;;;;;12.77;3.90;;;0.80;99.90;;;;;;4869122;29;20399;-80
2022/03/07 05:38:08;;;;;;;7.63;5.10;;;0.70;99.90;;;;;;4878974;29;20879;-81
2022/03/07 05:40:52;;;;;;;11.43;5.67;;;0.50;99.90;;;;;;4867484;29;20403;-80
2022/03/07 05:43:37;;;;;;;4.43;3.97;;;0.60;99.90;;;;;;4877873;29;20441;-81
2022/03/07 05:46:22;;;;;;;3.80;3.50;;;0.80;99.90;;;;;;4879460;29;20413;-81
2022/03/07 05:49:06;;;;;;;5.03;3.27;;;0.60;99.90;;;;;;4890480;29;20452;-82
2022/03/07 05:51:51;;;;;;;4.57;4.03;;;0.70;99.90;;;;;;4877405;29;20425;-82
2022/03/07 05:54:36;;;;;;;6.13;4.10;;;0.80;99.90;;;;;;4873282;29;20409;-82
2022/03/07 05:57:21;;;;;;;4.77;4.20;;;0.90;99.90;;;;;;4870049;29;20410;-80
2022/03/07 06:00:08;;;;;;;4.23;3.13;;;0.90;99.90;;;;;;4868528;29;20479;-80
2022/03/07 06:02:53;;;;;;;15.93;3.87;;;0.90;99.90;;;;;;4869661;29;20546;-80
2022/03/07 06:05:38;;;;;;;7.70;4.40;;;0.90;99.90;;;;;;4875665;29;20398;-81
2022/03/07 06:08:24;;;;;;;5.13;4.07;;;0.90;99.90;;;;;;4879057;29;20385;-78
2022/03/07 06:11:09;;;;;;;5.93;3.43;;;0.80;99.90;;;;;;4895786;29;20394;-81
2022/03/07 06:13:53;;;;;;;3.90;3.30;;;0.80;99.90;;;;;;4883097;29;20425;-80
2022/03/07 06:16:38;;;;;;;7.20;5.50;;;0.90;99.90;;;;;;4884152;29;20398;-81
2022/03/07 06:19:24;;;;;;;8.87;4.90;;;1.20;99.90;;;;;;4868597;29;20758;-82
2022/03/07 06:22:08;;;;;;;10.93;4.53;;;1.00;99.90;;;;;;4868368;29;20395;-83
2022/03/07 06:24:53;;;;;;;6.20;5.70;;;0.80;99.90;;;;;;4868392;29;20468;-83
2022/03/07 06:27:38;;;;;;;9.77;5.30;;;0.70;99.90;;;;;;4866958;29;20459;-81
2022/03/07 06:30:25;;;;;;;7.83;5.40;;;0.90;99.90;;;;;;4873466;29;20389;-81
2022/03/07 06:33:10;;;;;;;4.73;4.30;;;0.80;99.90;;;;;;4878996;29;20478;-82
2022/03/07 06:35:54;;;;;;;6.20;5.60;;;0.70;99.90;;;;;;4865325;29;20440;-82
2022/03/07 06:38:40;;;;;;;4.47;4.07;;;1.10;99.90;;;;;;4868392;29;20463;-81
2022/03/07 06:41:26;;;;;;;5.63;3.93;;;1.30;99.90;;;;;;4870661;29;20422;-81
2022/03/07 06:44:10;;;;;;;5.20;4.87;;;1.00;99.90;;;;;;4863191;29;20829;-82
2022/03/07 06:46:56;;;;;;;5.87;4.87;;;1.10;99.90;;;;;;4859662;29;20439;-82
2022/03/07 06:49:41;;;;;;;8.17;5.53;;;1.20;99.90;;;;;;4865633;29;20462;-83
2022/03/07 06:52:26;;;;;;;5.70;5.20;;;1.10;99.90;;;;;;4868449;29;20477;-81
2022/03/07 06:55:11;;;;;;;5.77;5.20;;;1.40;99.90;;;;;;4865516;29;20440;-82
2022/03/07 06:57:56;;;;;;;6.30;4.70;;;1.50;99.90;;;;;;4865647;29;20442;-82
2022/03/07 07:00:41;;;;;;;4.33;3.80;;;1.60;99.90;;;;;;4830342;29;20432;-82
2022/03/07 07:03:25;;;;;;;6.10;4.80;;;1.70;99.90;;;;;;4830571;29;20484;-82
2022/03/07 07:06:10;;;;;;;6.70;6.10;;;1.70;99.90;;;;;;4831911;29;20420;-83
2022/03/07 07:08:54;;;;;;;4.33;4.03;;;1.90;99.90;;;;;;4828143;29;20428;-82
2022/03/07 07:11:39;;;;;;;7.20;6.23;;;1.30;99.90;;;;;;4837301;29;20431;-82
2022/03/07 07:14:23;;;;;;;6.90;5.70;;;1.50;99.90;;;;;;4833664;29;20439;-81
2022/03/07 07:17:08;;;;;;;6.60;4.00;;;1.40;99.90;;;;;;4836333;29;20862;-82
2022/03/07 07:19:53;;;;;;;4.57;4.30;;;1.10;99.90;;;;;;4852172;29;20467;-82
2022/03/07 07:22:39;;;;;;;6.50;5.10;;;0.90;99.90;;;;;;4832823;29;20566;-81
2022/03/07 07:25:24;;;;;;;6.10;5.50;;;1.00;99.90;;;;;;4851778;29;20453;-82
2022/03/07 07:28:09;;;;;;;5.13;4.63;;;0.90;99.90;;;;;;4854362;29;20414;-82
2022/03/07 07:30:53;;;;;;;8.80;4.63;;;0.80;99.90;;;;;;4852204;29;20448;-81
2022/03/07 07:33:37;;;;;;;5.47;5.00;;;0.70;99.90;;;;;;4843371;29;20444;-81
2022/03/07 07:36:22;;;;;;;8.03;5.53;;;0.80;99.90;;;;;;4852330;29;20452;-80
2022/03/07 07:39:06;;;;;;;4.97;4.57;;;0.70;99.90;;;;;;4841873;29;20566;-81
2022/03/07 07:41:50;;;;;;;5.80;5.20;;;0.70;99.90;;;;;;4827548;29;20439;-81
2022/03/07 07:44:35;;;;;;;6.70;5.03;;;1.00;99.90;;;;;;4836949;29;20479;-81
2022/03/07 07:47:20;;;;;;;6.33;5.73;;;1.20;99.90;;;;;;4840649;29;20486;-81
2022/03/07 07:50:05;;;;;;;5.03;4.53;;;1.20;99.90;;;;;;4838748;29;20473;-81
2022/03/07 07:52:51;;;;;;;5.17;4.47;;;1.10;99.90;;;;;;4836454;29;20447;-80
2022/03/07 07:55:35;;;;;;;4.70;4.00;;;1.10;99.90;;;;;;4841679;29;20474;-80
2022/03/07 07:58:20;;;;;;;5.30;4.53;;;1.30;99.90;;;;;;4847140;29;20526;-80
2022/03/07 08:01:05;;;;;;;10.90;6.60;;;1.10;99.90;;;;;;4876937;29;20432;-81
2022/03/07 08:03:50;;;;;;;5.63;5.13;;;1.30;99.90;;;;;;4874964;29;20474;-82
2022/03/07 08:06:34;;;;;;;4.13;3.07;;;1.20;99.90;;;;;;4870869;29;20473;-82
2022/03/07 08:09:19;;;;;;;4.23;3.93;;;1.10;99.90;;;;;;4862446;29;20418;-80
2022/03/07 08:12:04;;;;;;;5.60;4.40;;;0.90;99.90;;;;;;4864183;29;20987;-80
2022/03/07 08:14:49;;;;;;;6.27;5.60;;;0.70;99.90;;;;;;4869198;29;20468;-80
2022/03/07 08:17:34;;;;;;;9.60;4.80;;;0.90;99.90;;;;;;4872157;29;20415;-81
2022/03/07 08:20:20;;;;;;;7.80;5.03;;;1.30;99.90;;;;;;4867077;29;20514;-81
2022/03/07 08:23:05;;;;;;;5.00;4.30;;;1.20;99.90;;;;;;4859275;29;20542;-81
2022/03/07 08:25:49;;;;;;;5.93;5.43;;;1.40;99.90;;;;;;4865831;29;20424;-81
2022/03/07 08:28:35;;;;;;;8.57;6.00;;;1.60;99.90;;;;;;4866370;29;20452;-80
2022/03/07 08:31:20;;;;;;;7.73;6.13;;;1.60;99.90;;;;;;4871400;29;20414;-81
2022/03/07 08:34:04;;;;;;;9.90;9.10;;;1.60;99.90;;;;;;4865271;29;20442;-80
2022/03/07 08:36:49;;;;;;;6.73;5.70;;;2.20;99.90;;;;;;4869462;29;20445;-80
2022/03/07 08:39:34;;;;;;;9.67;6.33;;;2.10;99.90;;;;;;4866450;29;21105;-80
2022/03/07 08:42:20;;;;;;;5.53;5.03;;;2.30;99.90;;;;;;4854578;29;20484;-81
2022/03/07 08:45:06;;;;;;;9.93;5.90;;;2.00;99.90;;;;;;4879612;29;20446;-80
2022/03/07 08:47:50;;;;;;;5.80;4.90;;;1.80;99.90;;;;;;4877978;29;20433;-80
2022/03/07 08:50:35;;;;;;;4.80;4.30;;;1.80;99.90;;;;;;4876247;29;20427;-80
2022/03/07 08:53:20;;;;;;;6.60;4.97;;;1.80;99.90;;;;;;4878754;29;20395;-80
2022/03/07 08:56:05;;;;;;;8.33;5.50;;;1.50;99.90;;;;;;4881742;29;20454;-80
2022/03/07 08:58:49;;;;;;;5.93;5.40;;;1.30;99.90;;;;;;4864471;29;20678;-81
2022/03/07 09:01:33;;;;;;;8.73;6.90;;;1.30;99.90;;;;;;4869597;29;20450;-83
2022/03/07 09:04:18;;;;;;;4.57;4.27;;;1.60;99.90;;;;;;4874225;29;20457;-83
2022/03/07 09:07:03;;;;;;;4.43;4.00;;;1.70;99.90;;;;;;4870143;29;20536;-83
2022/03/07 09:09:49;;;;;;;9.63;4.87;;;1.50;99.90;;;;;;4858152;29;20418;-83
2022/03/07 09:12:34;;;;;;;5.90;5.33;;;1.50;99.90;;;;;;4860360;29;20418;-83
2022/03/07 09:15:20;;;;;;;6.00;5.03;;;1.20;99.90;;;;;;4859149;29;20427;-83
2022/03/07 09:18:04;;;;;;;14.33;5.90;;;1.60;99.90;;;;;;4870373;29;20418;-83
2022/03/07 09:20:49;;;;;;;5.97;5.23;;;1.50;99.90;;;;;;4872569;29;20407;-83
2022/03/07 09:23:37;;;;;;;5.63;4.27;;;1.70;99.90;;;;;;4877450;29;20465;-83
2022/03/07 09:26:22;;;;;;;7.03;6.33;;;1.70;99.90;;;;;;4885678;29;20500;-81
2022/03/07 09:29:07;;;;;;;8.43;3.63;;;1.30;99.90;;;;;;4882627;29;20484;-82
2022/03/07 09:31:52;;;;;;;4.03;3.63;;;0.90;99.90;;;;;;4878910;29;20426;-80
2022/03/07 09:34:37;;;;;;;9.83;5.33;;;1.00;99.90;;;;;;4878789;29;20451;-83
2022/03/07 09:37:21;;;;;;;4.40;3.97;;;1.10;99.90;;;;;;4886537;29;20445;-83
2022/03/07 09:40:08;;;;;;;9.40;5.60;;;2.90;99.90;;;;;;4884922;29;20479;-83
2022/03/07 09:42:53;;;;;;;8.70;5.37;;;5.70;99.90;;;;;;4886171;29;20474;-80
2022/03/07 09:45:37;;;;;;;7.27;5.67;;;7.00;99.90;;;;;;4885626;29;20503;-82
2022/03/07 09:48:23;;;;;;;7.40;5.07;;;2.90;98.80;;;;;;4875499;29;20458;-83
2022/03/07 09:51:10;;;;;;;6.20;5.20;;;3.30;99.90;;;;;;4889607;29;20429;-82
2022/03/07 09:53:55;;;;;;;9.30;6.23;;;2.80;99.90;;;;;;4854608;29;20446;-83
2022/03/07 09:56:39;;;;;;;5.40;4.90;;;2.40;99.90;;;;;;4869581;29;20468;-83
2022/03/07 09:59:24;;;;;;;10.20;6.17;;;2.90;99.90;;;;;;4867751;29;20551;-80
2022/03/07 10:02:12;;;;;;;6.63;4.73;;;2.80;99.90;;;;;;4852736;29;20484;-82
2022/03/07 10:05:01;;;;;;;6.60;3.87;;;6.00;99.90;;;;;;4853503;29;20517;-82
2022/03/07 10:07:46;;;;;;;4.20;3.80;;;4.10;99.10;;;;;;4874538;29;20491;-80
2022/03/07 10:10:33;;;;;;;5.40;4.90;;;3.80;99.80;;;;;;4869021;29;20415;-81
2022/03/07 10:13:33;;;;;;;6.63;5.90;;;3.50;98.20;;;;;;4864862;29;20478;-81
2022/03/07 10:16:45;;;;;;;6.97;4.63;;;3.50;99.40;;;;;;4869317;29;20440;-81
2022/03/07 10:19:29;;;;;;;4.30;3.87;;;3.70;99.90;;;;;;4861054;29;20441;-81
2022/03/07 10:22:19;;;;;;;4.97;4.47;;;4.00;99.90;;;;;;4867472;29;20438;-81
2022/03/07 10:25:07;;;;;;;4.83;4.30;;;4.00;99.20;;;;;;4872761;29;20484;-80
2022/03/07 10:27:53;;;;;;;14.00;5.30;;;3.50;98.80;;;;;;4847646;29;20495;-80
2022/03/07 10:30:39;;;;;;;4.77;4.23;;;3.60;96.90;;;;;;4865668;29;20413;-81
2022/03/07 10:33:26;;;;;;;6.30;4.03;;;3.70;98.20;;;;;;4868568;29;20494;-81
2022/03/07 10:36:11;;;;;;;6.93;4.47;;;4.10;96.80;;;;;;4866674;29;20456;-81
2022/03/07 10:38:56;;;;;;;5.20;4.80;;;4.80;96.20;;;;;;4867311;29;20420;-80
2022/03/07 10:41:43;;;;;;;5.10;4.57;;;4.60;93.70;;;;;;4871286;29;20406;-82
2022/03/07 10:44:35;;;;;;;4.43;3.37;;;4.70;95.10;;;;;;4872060;29;20511;-82
2022/03/07 10:47:20;;;;;;;4.07;3.77;;;4.10;94.00;;;;;;4867034;29;20499;-82
2022/03/07 10:50:06;;;;;;;6.00;4.20;;;4.20;96.50;;;;;;4867198;29;20426;-81
2022/03/07 10:52:53;;;;;;;5.73;4.03;;;4.00;94.50;;;;;;4864228;29;20529;-81
2022/03/07 10:55:37;;;;;;;4.07;2.80;;;4.00;95.60;;;;;;4850087;29;20488;-81
2022/03/07 10:58:22;;;;;;;3.03;2.83;;;3.90;93.40;;;;;;4843205;29;20469;-82
2022/03/07 11:01:07;;;;;;;2.50;2.40;;;4.40;94.10;;;;;;4865898;29;20418;-81
2022/03/07 11:03:51;;;;;;;4.37;3.70;;;4.40;93.60;;;;;;4857062;29;20514;-81
2022/03/07 11:06:37;;;;;;;4.63;2.80;;;4.50;91.60;;;;;;4873369;29;20436;-79
2022/03/07 11:09:22;;;;;;;4.40;3.00;;;4.30;92.50;;;;;;4864671;29;20492;-79
2022/03/07 11:12:12;;;;;;;5.10;3.70;;;4.70;91.40;;;;;;4879600;29;20426;-80
2022/03/07 11:14:58;;;;;;;4.20;3.90;;;3.80;92.90;;;;;;4888932;29;20442;-80
2022/03/07 11:18:02;;;;;;;4.17;3.33;;;5.10;93.30;;;;;;4876537;29;20502;-81
2022/03/07 11:20:47;;;;;;;3.97;3.67;;;6.60;91.60;;;;;;4876671;29;20568;-78
2022/03/07 11:23:32;;;;;;;5.93;3.20;;;5.40;89.40;;;;;;4878213;29;20478;-80
2022/03/07 11:26:20;;;;;;;4.90;4.50;;;5.60;91.70;;;;;;4856888;29;20520;-81
2022/03/07 11:29:04;;;;;;;4.77;4.37;;;5.10;92.10;;;;;;4860974;29;20412;-80
2022/03/07 11:32:00;;;;;;;3.23;2.93;;;5.30;91.40;;;;;;4884014;29;20453;-81
2022/03/07 11:35:02;;;;;;;4.97;3.77;;;5.70;91.60;;;;;;4880928;29;20500;-80
2022/03/07 11:37:47;;;;;;;3.80;3.50;;;5.50;87.70;;;;;;4867396;29;20475;-81
2022/03/07 11:40:32;;;;;;;4.40;4.00;;;6.80;85.90;;;;;;4877846;29;20483;-82
2022/03/07 11:43:52;;;;;;;4.97;4.47;;;6.20;83.90;;;;;;4860044;29;20470;-82
2022/03/07 11:46:39;;;;;;;4.30;3.90;;;7.00;83.90;;;;;;4837608;29;20572;-81
2022/03/07 11:49:27;;;;;;;4.23;3.83;;;6.50;80.90;;;;;;4832389;29;20497;-81
2022/03/07 11:52:17;;;;;;;4.17;3.87;;;6.70;81.40;;;;;;4826105;29;20540;-81
2022/03/07 11:55:10;;;;;;;4.63;3.70;;;8.40;78.80;;;;;;4840328;29;20583;-81
2022/03/07 11:58:05;;;;;;;3.83;3.53;;;7.70;74.60;;;;;;4844030;29;20517;-80
2022/03/07 12:01:03;;;;;;;7.73;4.47;;;7.30;80.20;;;;;;4843069;29;20475;-80
2022/03/07 12:03:50;;;;;;;4.47;4.07;;;6.90;78.10;;;;;;4841031;29;20623;-78
2022/03/07 12:06:46;;;;;;;3.87;3.50;;;6.60;77.80;;;;;;4840142;29;20420;-80
2022/03/07 12:09:33;;;;;;;6.27;5.23;;;7.90;82.00;;;;;;4831767;29;20457;-80
2022/03/07 12:12:38;;;;;;;4.23;3.50;;;8.00;76.10;;;;;;4859094;29;20447;-80
2022/03/07 12:15:22;;;;;;;5.77;4.07;;;7.50;72.70;;;;;;4878376;29;20571;-80
2022/03/07 12:18:07;;;;;;;4.40;4.00;;;8.70;73.10;;;;;;4873566;29;20423;-81
2022/03/07 12:21:02;;;;;;;5.20;3.90;;;8.30;72.80;;;;;;4868572;29;20819;-81
2022/03/07 12:23:48;;;;;;;5.70;4.43;;;8.60;69.30;;;;;;4881382;29;20461;-81
2022/03/07 12:26:46;;;;;;;4.63;4.10;;;8.20;70.00;;;;;;4873934;29;20609;-82
2022/03/07 12:29:31;;;;;;;3.57;3.27;;;8.50;70.80;;;;;;4876531;29;20410;-81
2022/03/07 12:32:16;;;;;;;4.10;3.80;;;8.20;71.20;;;;;;4865376;29;20434;-81
2022/03/07 12:35:02;;;;;;;4.07;3.67;;;7.60;72.00;;;;;;4882139;29;20896;-81
2022/03/07 12:37:47;;;;;;;5.17;4.40;;;8.10;71.00;;;;;;4853959;29;20430;-81
2022/03/07 12:40:34;;;;;;;4.47;4.10;;;7.70;70.50;;;;;;4878708;29;20498;-81
2022/03/07 12:43:19;;;;;;;3.67;3.33;;;9.50;73.10;;;;;;4872404;29;20458;-82
2022/03/07 12:46:04;;;;;;;5.30;4.80;;;8.70;67.80;;;;;;4862130;29;20439;-80
2022/03/07 12:48:49;;;;;;;5.27;4.77;;;10.50;66.70;;;;;;4866971;29;20926;-81
2022/03/07 12:51:53;;;;;;;4.57;4.17;;;10.00;63.30;;;;;;4895465;29;20505;-80
2022/03/07 12:54:41;;;;;;;4.53;4.10;;;10.00;63.30;;;;;;4890516;29;20453;-82
2022/03/07 12:57:29;;;;;;;6.77;4.10;;;10.50;64.60;;;;;;4895057;29;20496;-81
2022/03/07 13:00:16;;;;;;;4.40;4.00;;;10.70;63.80;;;;;;4895970;29;21978;-80
2022/03/07 13:03:04;;;;;;;5.40;4.80;;;11.60;63.10;;;;;;4893918;29;20465;-82
2022/03/07 13:06:00;;;;;;;4.70;4.10;;;11.10;62.20;;;;;;4897424;29;20413;-79
2022/03/07 13:08:47;;;;;;;5.43;3.50;;;8.90;58.30;;;;;;4883799;29;20571;-81
2022/03/07 13:11:37;;;;;;;10.60;4.80;;;8.60;64.10;;;;;;4872846;29;21743;-82
2022/03/07 13:14:25;;;;;;;4.80;4.40;;;8.70;65.30;;;;;;4870355;29;20482;-82
2022/03/07 13:17:13;;;;;;;5.60;4.10;;;9.90;64.60;;;;;;4868727;29;20445;-81
2022/03/07 13:19:59;;;;;;;4.03;3.63;;;10.20;66.40;;;;;;4869159;29;20482;-83
2022/03/07 13:22:44;;;;;;;6.23;4.07;;;9.40;62.00;;;;;;4858050;29;20501;-80
2022/03/07 13:25:45;;;;;;;6.40;4.30;;;9.00;60.90;;;;;;4863662;29;20430;-82
2022/03/07 13:28:30;;;;;;;5.17;4.50;;;10.00;63.90;;;;;;4845423;29;20779;-82
2022/03/07 13:31:15;;;;;;;4.77;4.33;;;11.00;63.40;;;;;;4842416;29;20461;-81
2022/03/07 13:33:59;;;;;;;5.80;3.87;;;11.90;59.00;;;;;;4850877;29;20410;-81
2022/03/07 13:36:50;;;;;;;4.47;3.90;;;12.20;58.40;;;;;;4844374;29;20412;-80
2022/03/07 13:39:36;;;;;;;4.97;4.47;;;12.00;56.50;;;;;;4845776;29;20423;-80
2022/03/07 13:42:20;;;;;;;4.60;4.30;;;12.90;55.90;;;;;;4870477;29;20456;-81
2022/03/07 13:45:09;;;;;;;5.30;4.90;;;12.10;56.80;;;;;;4848680;29;20484;-79
2022/03/07 13:47:59;;;;;;;5.10;4.60;;;10.70;57.00;;;;;;4850770;29;20433;-81
2022/03/07 13:50:48;;;;;;;4.97;4.43;;;11.00;59.00;;;;;;4849935;29;20736;-83
2022/03/07 13:53:34;;;;;;;5.63;4.93;;;11.80;56.10;;;;;;4867426;29;20458;-81
2022/03/07 13:56:26;;;;;;;5.60;4.80;;;10.70;56.70;;;;;;4857036;29;20454;-80
2022/03/07 13:59:13;;;;;;;5.13;4.73;;;12.50;58.50;;;;;;4861765;29;20483;-81
2022/03/07 14:02:00;;;;;;;7.63;6.00;;;10.50;55.30;;;;;;4852161;29;20415;-79
2022/03/07 14:05:02;;;;;;;5.67;4.70;;;10.90;58.20;;;;;;4859661;29;20909;-80
2022/03/07 14:07:53;;;;;;;5.03;4.63;;;10.90;56.90;;;;;;4869530;29;20498;-80
2022/03/07 14:11:23;;;;;;;4.67;4.27;;;13.20;56.30;;;;;;4863757;29;20487;-81
2022/03/07 14:14:19;;;;;;;4.67;4.27;;;12.70;53.60;;;;;;4852167;29;20958;-80
2022/03/07 14:17:15;;;;;;;5.27;4.77;;;13.00;55.90;;;;;;4853818;29;20447;-80
2022/03/07 14:20:03;;;;;;;4.97;4.57;;;12.20;52.10;;;;;;4835805;29;20467;-81
2022/03/07 14:22:48;;;;;;;5.00;4.60;;;11.20;53.70;;;;;;4855038;29;20542;-79
2022/03/07 14:25:33;;;;;;;5.00;4.50;;;10.60;53.60;;;;;;4856736;29;21265;-80
2022/03/07 14:28:17;;;;;;;5.27;4.73;;;11.40;58.30;;;;;;4854176;29;20521;-81
2022/03/07 14:31:02;;;;;;;7.40;5.10;;;12.40;54.30;;;;;;4860991;29;20415;-81
2022/03/07 14:33:47;;;;;;;6.97;5.63;;;11.90;55.10;;;;;;4851394;29;20439;-80
2022/03/07 14:36:31;;;;;;;5.50;5.03;;;9.90;54.80;;;;;;4853740;29;20447;-81